sensor_id;sensor_type;location;lat;lon;timestamp;temperature;humidity
30851;DHT22;17567;48.382;9.102;2022-11-04T00:03:18;9.90;99.90
30851;DHT22;17567;48.382;9.102;2022-11-04T00:08:19;9.90;99.90
30851;DHT22;17567;48.382;9.102;2022-11-04T00:13:28;9.90;99.90
30851;DHT22;17567;48.382;9.102;2022-11-04T00:18:29;9.80;99.90
30851;DHT22;17567;48.382;9.102;2022-11-04T00:23:30;9.90;99.90
30851;DHT22;17567;48.382;9.102;2022-11-04T00:28:49;9.80;99.90
30851;DHT22;17567;48.382;9.102;2022-11-04T00:33:54;9.80;99.90
30851;DHT22;17567;48.382;9.102;2022-11-04T00:38:55;9.90;99.90
30851;DHT22;17567;48.382;9.102;2022-11-04T00:44:01;9.90;99.90
30851;DHT22;17567;48.382;9.102;2022-11-04T00:49:02;9.80;99.90
30851;DHT22;17567;48.382;9.102;2022-11-04T00:54:03;9.90;99.90
30851;DHT22;17567;48.382;9.102;2022-11-04T00:59:04;9.80;99.90
30851;DHT22;17567;48.382;9.102;2022-11-04T01:04:05;9.70;99.90
30851;DHT22;17567;48.382;9.102;2022-11-04T01:09:07;9.80;99.90
30851;DHT22;17567;48.382;9.102;2022-11-04T01:14:08;9.80;99.90
30851;DHT22;17567;48.382;9.102;2022-11-04T01:19:10;9.70;99.90
30851;DHT22;17567;48.382;9.102;2022-11-04T01:24:11;9.70;99.90
30851;DHT22;17567;48.382;9.102;2022-11-04T01:29:43;9.80;99.90
30851;DHT22;17567;48.382;9.102;2022-11-04T01:34:45;9.90;99.90
30851;DHT22;17567;48.382;9.102;2022-11-04T01:39:52;9.80;99.90
30851;DHT22;17567;48.382;9.102;2022-11-04T01:44:57;9.80;99.90
30851;DHT22;17567;48.382;9.102;2022-11-04T01:50:04;9.50;99.90
30851;DHT22;17567;48.382;9.102;2022-11-04T01:55:11;9.20;99.90
30851;DHT22;17567;48.382;9.102;2022-11-04T02:00:50;9.00;99.90
30851;DHT22;17567;48.382;9.102;2022-11-04T02:05:51;8.90;99.90
30851;DHT22;17567;48.382;9.102;2022-11-04T02:11:15;8.90;99.90
30851;DHT22;17567;48.382;9.102;2022-11-04T02:16:41;8.90;99.90
30851;DHT22;17567;48.382;9.102;2022-11-04T02:43:20;8.80;99.90
30851;DHT22;17567;48.382;9.102;2022-11-04T02:53:42;8.70;99.90
30851;DHT22;17567;48.382;9.102;2022-11-04T02:58:57;8.60;99.90
30851;DHT22;17567;48.382;9.102;2022-11-04T03:04:18;8.70;99.90
30851;DHT22;17567;48.382;9.102;2022-11-04T03:09:20;8.70;99.90
30851;DHT22;17567;48.382;9.102;2022-11-04T03:14:39;8.70;99.90
30851;DHT22;17567;48.382;9.102;2022-11-04T03:19:52;8.60;99.90
30851;DHT22;17567;48.382;9.102;2022-11-04T03:24:54;8.50;99.90
30851;DHT22;17567;48.382;9.102;2022-11-04T03:34:56;8.50;99.90
30851;DHT22;17567;48.382;9.102;2022-11-04T03:39:56;8.40;99.90
30851;DHT22;17567;48.382;9.102;2022-11-04T03:44:58;8.30;99.90
30851;DHT22;17567;48.382;9.102;2022-11-04T03:50:09;8.20;99.90
30851;DHT22;17567;48.382;9.102;2022-11-04T03:55:12;8.10;99.90
30851;DHT22;17567;48.382;9.102;2022-11-04T04:00:15;8.10;99.90
30851;DHT22;17567;48.382;9.102;2022-11-04T04:05:34;8.00;99.90
30851;DHT22;17567;48.382;9.102;2022-11-04T04:21:58;7.90;99.90
30851;DHT22;17567;48.382;9.102;2022-11-04T04:27:00;7.90;99.90
30851;DHT22;17567;48.382;9.102;2022-11-04T04:32:22;8.00;99.90
30851;DHT22;17567;48.382;9.102;2022-11-04T04:37:25;7.90;99.90
30851;DHT22;17567;48.382;9.102;2022-11-04T04:42:34;7.80;99.90
30851;DHT22;17567;48.382;9.102;2022-11-04T04:47:53;7.70;99.90
30851;DHT22;17567;48.382;9.102;2022-11-04T04:52:56;7.60;99.90
30851;DHT22;17567;48.382;9.102;2022-11-04T04:57:58;7.60;99.90
30851;DHT22;17567;48.382;9.102;2022-11-04T05:02:59;7.60;99.90
30851;DHT22;17567;48.382;9.102;2022-11-04T05:08:06;7.50;99.90
30851;DHT22;17567;48.382;9.102;2022-11-04T05:13:08;7.50;99.90
30851;DHT22;17567;48.382;9.102;2022-11-04T05:18:28;7.50;99.90
30851;DHT22;17567;48.382;9.102;2022-11-04T05:23:29;7.40;99.90
30851;DHT22;17567;48.382;9.102;2022-11-04T05:28:30;7.30;99.90
30851;DHT22;17567;48.382;9.102;2022-11-04T05:33:32;7.20;99.90
30851;DHT22;17567;48.382;9.102;2022-11-04T05:38:32;7.10;99.90
30851;DHT22;17567;48.382;9.102;2022-11-04T05:43:34;7.20;99.90
30851;DHT22;17567;48.382;9.102;2022-11-04T05:48:35;7.00;99.90
30851;DHT22;17567;48.382;9.102;2022-11-04T05:53:35;6.90;99.90
30851;DHT22;17567;48.382;9.102;2022-11-04T05:58:36;6.90;99.90
30851;DHT22;17567;48.382;9.102;2022-11-04T06:03:37;6.80;99.90
30851;DHT22;17567;48.382;9.102;2022-11-04T06:08:38;6.70;99.90
30851;DHT22;17567;48.382;9.102;2022-11-04T06:13:38;6.90;99.90
30851;DHT22;17567;48.382;9.102;2022-11-04T06:18:39;6.90;99.90
30851;DHT22;17567;48.382;9.102;2022-11-04T06:23:41;6.70;99.90
30851;DHT22;17567;48.382;9.102;2022-11-04T06:28:44;6.60;99.90
30851;DHT22;17567;48.382;9.102;2022-11-04T06:33:46;6.50;99.90
30851;DHT22;17567;48.382;9.102;2022-11-04T06:38:46;6.50;99.90
30851;DHT22;17567;48.382;9.102;2022-11-04T06:43:47;6.50;99.90
30851;DHT22;17567;48.382;9.102;2022-11-04T06:48:48;6.50;99.90
30851;DHT22;17567;48.382;9.102;2022-11-04T06:53:48;6.40;99.90
30851;DHT22;17567;48.382;9.102;2022-11-04T06:58:50;6.40;99.90
30851;DHT22;17567;48.382;9.102;2022-11-04T07:03:53;6.30;99.90
30851;DHT22;17567;48.382;9.102;2022-11-04T07:08:57;6.20;99.90
30851;DHT22;17567;48.382;9.102;2022-11-04T07:13:58;6.30;99.90
30851;DHT22;17567;48.382;9.102;2022-11-04T07:18:59;6.30;99.90
30851;DHT22;17567;48.382;9.102;2022-11-04T07:24:00;6.40;99.90
30851;DHT22;17567;48.382;9.102;2022-11-04T07:29:02;6.50;99.90
30851;DHT22;17567;48.382;9.102;2022-11-04T07:34:02;6.50;99.90
30851;DHT22;17567;48.382;9.102;2022-11-04T07:39:03;6.50;99.90
30851;DHT22;17567;48.382;9.102;2022-11-04T07:44:06;6.50;99.90
30851;DHT22;17567;48.382;9.102;2022-11-04T07:49:07;6.50;99.90
30851;DHT22;17567;48.382;9.102;2022-11-04T07:54:07;6.50;99.90
30851;DHT22;17567;48.382;9.102;2022-11-04T07:59:08;6.70;99.90
30851;DHT22;17567;48.382;9.102;2022-11-04T08:04:10;6.70;99.90
30851;DHT22;17567;48.382;9.102;2022-11-04T08:09:11;6.80;99.90
30851;DHT22;17567;48.382;9.102;2022-11-04T08:14:12;7.00;99.90
30851;DHT22;17567;48.382;9.102;2022-11-04T08:19:13;7.20;99.90
30851;DHT22;17567;48.382;9.102;2022-11-04T08:24:13;7.30;99.90
30851;DHT22;17567;48.382;9.102;2022-11-04T08:29:14;7.40;99.90
30851;DHT22;17567;48.382;9.102;2022-11-04T08:34:14;7.60;99.90
30851;DHT22;17567;48.382;9.102;2022-11-04T08:39:17;7.70;99.90
30851;DHT22;17567;48.382;9.102;2022-11-04T08:44:19;7.90;99.90
30851;DHT22;17567;48.382;9.102;2022-11-04T08:49:20;8.00;99.90
30851;DHT22;17567;48.382;9.102;2022-11-04T08:54:24;8.00;99.90
30851;DHT22;17567;48.382;9.102;2022-11-04T08:59:25;8.10;99.90
30851;DHT22;17567;48.382;9.102;2022-11-04T09:04:25;8.10;99.90
30851;DHT22;17567;48.382;9.102;2022-11-04T09:09:26;8.20;99.90
30851;DHT22;17567;48.382;9.102;2022-11-04T09:14:27;8.30;99.90
30851;DHT22;17567;48.382;9.102;2022-11-04T09:19:27;8.30;99.90
30851;DHT22;17567;48.382;9.102;2022-11-04T09:24:28;8.40;99.90
30851;DHT22;17567;48.382;9.102;2022-11-04T09:29:29;8.60;99.90
30851;DHT22;17567;48.382;9.102;2022-11-04T09:34:33;8.70;99.90
30851;DHT22;17567;48.382;9.102;2022-11-04T09:39:34;8.90;99.90
30851;DHT22;17567;48.382;9.102;2022-11-04T09:44:54;9.00;99.90
30851;DHT22;17567;48.382;9.102;2022-11-04T09:49:58;9.10;99.90
30851;DHT22;17567;48.382;9.102;2022-11-04T09:55:22;9.20;99.90
30851;DHT22;17567;48.382;9.102;2022-11-04T10:00:24;9.40;99.90
30851;DHT22;17567;48.382;9.102;2022-11-04T10:05:44;9.50;99.90
30851;DHT22;17567;48.382;9.102;2022-11-04T10:26:56;10.00;99.90
30851;DHT22;17567;48.382;9.102;2022-11-04T10:32:03;10.30;99.90
30851;DHT22;17567;48.382;9.102;2022-11-04T10:37:10;10.40;99.90
30851;DHT22;17567;48.382;9.102;2022-11-04T10:57:48;10.70;99.90
30851;DHT22;17567;48.382;9.102;2022-11-04T11:02:49;10.90;99.90
30851;DHT22;17567;48.382;9.102;2022-11-04T11:07:53;11.00;99.90
30851;DHT22;17567;48.382;9.102;2022-11-04T11:12:56;11.10;99.90
30851;DHT22;17567;48.382;9.102;2022-11-04T11:28:35;11.60;99.90
30851;DHT22;17567;48.382;9.102;2022-11-04T11:33:45;11.40;99.90
30851;DHT22;17567;48.382;9.102;2022-11-04T11:44:24;11.30;99.90
30851;DHT22;17567;48.382;9.102;2022-11-04T11:49:31;11.40;99.90
30851;DHT22;17567;48.382;9.102;2022-11-04T11:54:35;11.10;99.90
30851;DHT22;17567;48.382;9.102;2022-11-04T11:59:45;11.20;99.90
30851;DHT22;17567;48.382;9.102;2022-11-04T12:04:47;11.10;99.90
30851;DHT22;17567;48.382;9.102;2022-11-04T12:10:29;11.20;99.90
30851;DHT22;17567;48.382;9.102;2022-11-04T12:15:40;11.20;99.90
30851;DHT22;17567;48.382;9.102;2022-11-04T12:21:00;11.70;99.90
30851;DHT22;17567;48.382;9.102;2022-11-04T12:31:41;12.30;99.90
30851;DHT22;17567;48.382;9.102;2022-11-04T13:03:15;12.70;99.90
30851;DHT22;17567;48.382;9.102;2022-11-04T13:08:46;12.50;99.90
30851;DHT22;17567;48.382;9.102;2022-11-04T13:14:12;12.30;99.90
30851;DHT22;17567;48.382;9.102;2022-11-04T13:19:23;12.20;99.90
30851;DHT22;17567;48.382;9.102;2022-11-04T13:24:31;12.00;99.90
30851;DHT22;17567;48.382;9.102;2022-11-04T13:29:32;11.70;99.90
30851;DHT22;17567;48.382;9.102;2022-11-04T13:39:47;10.90;99.90
30851;DHT22;17567;48.382;9.102;2022-11-04T13:44:52;10.60;99.90
30851;DHT22;17567;48.382;9.102;2022-11-04T13:49:56;10.70;99.90
30851;DHT22;17567;48.382;9.102;2022-11-04T13:54:58;11.00;99.90
30851;DHT22;17567;48.382;9.102;2022-11-04T14:16:03;11.30;99.90
30851;DHT22;17567;48.382;9.102;2022-11-04T14:21:10;11.10;99.90
30851;DHT22;17567;48.382;9.102;2022-11-04T14:31:38;10.80;99.90
30851;DHT22;17567;48.382;9.102;2022-11-04T14:36:40;10.70;99.90
30851;DHT22;17567;48.382;9.102;2022-11-04T14:41:57;10.60;99.90
30851;DHT22;17567;48.382;9.102;2022-11-04T14:52:35;10.50;99.90
30851;DHT22;17567;48.382;9.102;2022-11-04T14:57:50;10.50;99.90
30851;DHT22;17567;48.382;9.102;2022-11-04T15:08:35;10.50;99.90
30851;DHT22;17567;48.382;9.102;2022-11-04T15:18:45;10.40;99.90
30851;DHT22;17567;48.382;9.102;2022-11-04T15:23:48;10.30;99.90
30851;DHT22;17567;48.382;9.102;2022-11-04T15:28:50;10.10;99.90
30851;DHT22;17567;48.382;9.102;2022-11-04T15:33:53;10.00;99.90
30851;DHT22;17567;48.382;9.102;2022-11-04T15:38:56;9.80;99.90
30851;DHT22;17567;48.382;9.102;2022-11-04T15:43:58;9.70;99.90
30851;DHT22;17567;48.382;9.102;2022-11-04T15:49:04;9.60;99.90
30851;DHT22;17567;48.382;9.102;2022-11-04T15:54:17;9.50;99.90
30851;DHT22;17567;48.382;9.102;2022-11-04T15:59:56;9.50;99.90
30851;DHT22;17567;48.382;9.102;2022-11-04T16:05:25;9.40;99.90
30851;DHT22;17567;48.382;9.102;2022-11-04T16:10:33;9.40;99.90
30851;DHT22;17567;48.382;9.102;2022-11-04T16:15:37;9.40;99.90
30851;DHT22;17567;48.382;9.102;2022-11-04T16:20:44;9.50;99.90
30851;DHT22;17567;48.382;9.102;2022-11-04T16:25:45;9.20;99.90
30851;DHT22;17567;48.382;9.102;2022-11-04T16:31:06;9.20;99.90
30851;DHT22;17567;48.382;9.102;2022-11-04T16:36:13;9.20;99.90
30851;DHT22;17567;48.382;9.102;2022-11-04T16:41:24;9.00;99.90
30851;DHT22;17567;48.382;9.102;2022-11-04T16:46:25;9.00;99.90
30851;DHT22;17567;48.382;9.102;2022-11-04T16:51:26;9.00;99.90
30851;DHT22;17567;48.382;9.102;2022-11-04T16:56:27;8.90;99.90
30851;DHT22;17567;48.382;9.102;2022-11-04T17:01:28;8.80;99.90
30851;DHT22;17567;48.382;9.102;2022-11-04T17:06:28;8.80;99.90
30851;DHT22;17567;48.382;9.102;2022-11-04T17:11:29;8.80;99.90
30851;DHT22;17567;48.382;9.102;2022-11-04T17:16:30;8.70;99.90
30851;DHT22;17567;48.382;9.102;2022-11-04T17:21:30;8.60;99.90
30851;DHT22;17567;48.382;9.102;2022-11-04T17:26:31;8.50;99.90
30851;DHT22;17567;48.382;9.102;2022-11-04T17:31:32;8.50;99.90
30851;DHT22;17567;48.382;9.102;2022-11-04T17:36:33;8.50;99.90
30851;DHT22;17567;48.382;9.102;2022-11-04T17:41:34;8.40;99.90
30851;DHT22;17567;48.382;9.102;2022-11-04T17:46:53;8.30;99.90
30851;DHT22;17567;48.382;9.102;2022-11-04T17:51:56;8.30;99.90
30851;DHT22;17567;48.382;9.102;2022-11-04T17:56:57;8.40;99.90
30851;DHT22;17567;48.382;9.102;2022-11-04T18:01:58;8.30;99.90
30851;DHT22;17567;48.382;9.102;2022-11-04T18:06:58;8.30;99.90
30851;DHT22;17567;48.382;9.102;2022-11-04T18:11:59;8.20;99.90
30851;DHT22;17567;48.382;9.102;2022-11-04T18:17:18;8.20;99.90
30851;DHT22;17567;48.382;9.102;2022-11-04T18:22:23;8.40;99.90
30851;DHT22;17567;48.382;9.102;2022-11-04T18:27:24;8.30;99.90
30851;DHT22;17567;48.382;9.102;2022-11-04T18:32:25;8.20;99.90
30851;DHT22;17567;48.382;9.102;2022-11-04T18:37:26;8.20;99.90
30851;DHT22;17567;48.382;9.102;2022-11-04T18:42:27;8.10;99.90
30851;DHT22;17567;48.382;9.102;2022-11-04T18:47:27;8.20;99.90
30851;DHT22;17567;48.382;9.102;2022-11-04T18:52:28;8.30;99.90
30851;DHT22;17567;48.382;9.102;2022-11-04T18:57:28;8.20;99.90
30851;DHT22;17567;48.382;9.102;2022-11-04T19:02:29;8.20;99.90
30851;DHT22;17567;48.382;9.102;2022-11-04T19:07:31;8.20;99.90
30851;DHT22;17567;48.382;9.102;2022-11-04T19:12:32;8.10;99.90
30851;DHT22;17567;48.382;9.102;2022-11-04T19:17:51;8.00;99.90
30851;DHT22;17567;48.382;9.102;2022-11-04T19:22:52;7.90;99.90
30851;DHT22;17567;48.382;9.102;2022-11-04T19:27:53;7.80;99.90
30851;DHT22;17567;48.382;9.102;2022-11-04T19:32:53;7.70;99.90
30851;DHT22;17567;48.382;9.102;2022-11-04T19:37:54;7.60;99.90
30851;DHT22;17567;48.382;9.102;2022-11-04T19:42:55;7.50;99.90
30851;DHT22;17567;48.382;9.102;2022-11-04T19:48:12;7.40;99.90
30851;DHT22;17567;48.382;9.102;2022-11-04T19:53:14;7.30;99.90
30851;DHT22;17567;48.382;9.102;2022-11-04T19:58:15;7.10;99.90
30851;DHT22;17567;48.382;9.102;2022-11-04T20:03:16;7.20;99.90
30851;DHT22;17567;48.382;9.102;2022-11-04T20:08:17;7.10;99.90
30851;DHT22;17567;48.382;9.102;2022-11-04T20:13:19;7.00;99.90
30851;DHT22;17567;48.382;9.102;2022-11-04T20:18:38;7.10;99.90
30851;DHT22;17567;48.382;9.102;2022-11-04T20:23:40;7.30;99.90
30851;DHT22;17567;48.382;9.102;2022-11-04T20:28:41;7.20;99.90
30851;DHT22;17567;48.382;9.102;2022-11-04T20:33:44;7.10;99.90
30851;DHT22;17567;48.382;9.102;2022-11-04T20:38:45;7.10;99.90
30851;DHT22;17567;48.382;9.102;2022-11-04T20:43:48;7.00;99.90
30851;DHT22;17567;48.382;9.102;2022-11-04T20:48:50;7.00;99.90
30851;DHT22;17567;48.382;9.102;2022-11-04T20:53:50;7.00;99.90
30851;DHT22;17567;48.382;9.102;2022-11-04T20:58:56;7.00;99.90
30851;DHT22;17567;48.382;9.102;2022-11-04T21:04:00;7.10;99.90
30851;DHT22;17567;48.382;9.102;2022-11-04T21:09:01;7.10;99.90
30851;DHT22;17567;48.382;9.102;2022-11-04T21:14:02;7.10;99.90
30851;DHT22;17567;48.382;9.102;2022-11-04T21:19:04;7.10;99.90
30851;DHT22;17567;48.382;9.102;2022-11-04T21:24:06;7.10;99.90
30851;DHT22;17567;48.382;9.102;2022-11-04T21:29:09;7.10;99.90
30851;DHT22;17567;48.382;9.102;2022-11-04T21:34:10;7.10;99.90
30851;DHT22;17567;48.382;9.102;2022-11-04T21:39:11;7.00;99.90
30851;DHT22;17567;48.382;9.102;2022-11-04T21:44:12;7.00;99.90
30851;DHT22;17567;48.382;9.102;2022-11-04T21:49:13;7.00;99.90
30851;DHT22;17567;48.382;9.102;2022-11-04T21:54:14;7.00;99.90
30851;DHT22;17567;48.382;9.102;2022-11-04T21:59:15;7.00;99.90
30851;DHT22;17567;48.382;9.102;2022-11-04T22:04:16;7.00;99.90
30851;DHT22;17567;48.382;9.102;2022-11-04T22:09:16;7.00;99.90
30851;DHT22;17567;48.382;9.102;2022-11-04T22:14:17;7.10;99.90
30851;DHT22;17567;48.382;9.102;2022-11-04T22:19:18;7.20;99.90
30851;DHT22;17567;48.382;9.102;2022-11-04T22:24:18;7.20;99.90
30851;DHT22;17567;48.382;9.102;2022-11-04T22:29:19;7.30;99.90
30851;DHT22;17567;48.382;9.102;2022-11-04T22:34:20;7.30;99.90
30851;DHT22;17567;48.382;9.102;2022-11-04T22:39:21;7.40;99.90
30851;DHT22;17567;48.382;9.102;2022-11-04T22:44:22;7.30;99.90
30851;DHT22;17567;48.382;9.102;2022-11-04T22:49:23;7.20;99.90
30851;DHT22;17567;48.382;9.102;2022-11-04T22:54:39;7.20;99.90
30851;DHT22;17567;48.382;9.102;2022-11-04T22:59:39;7.20;99.90
30851;DHT22;17567;48.382;9.102;2022-11-04T23:04:43;7.20;99.90
30851;DHT22;17567;48.382;9.102;2022-11-04T23:09:44;7.20;99.90
30851;DHT22;17567;48.382;9.102;2022-11-04T23:21:00;7.30;99.90
30851;DHT22;17567;48.382;9.102;2022-11-04T23:26:20;7.30;99.90
30851;DHT22;17567;48.382;9.102;2022-11-04T23:31:20;7.30;99.90
30851;DHT22;17567;48.382;9.102;2022-11-04T23:36:39;7.30;99.90
30851;DHT22;17567;48.382;9.102;2022-11-04T23:41:58;7.30;99.90
30851;DHT22;17567;48.382;9.102;2022-11-04T23:47:17;7.30;99.90
30851;DHT22;17567;48.382;9.102;2022-11-04T23:52:36;7.30;99.90
30851;DHT22;17567;48.382;9.102;2022-11-04T23:57:55;7.40;99.90
